Lone Jack, MO (64070)

9:21 AM CDT on June 24, 2017 (GMT -0500)
Lone Jack rural residence | | Change Station

Elev 1020 ft 38.85 °N, 94.18 °W | Updated 29 seconds ago

Clear
Clear
68.4 °F
Feels Like 68.4 °F
N
1.8
Wind Variable Wind from WNW
Gusts 2.5 mph

Today
High -- | Low -- °F
--% Chance of Precip.
Yesterday
High -- | Low -- °F
Precip. -- in
Pressure 30.19 in
Visibility 10.0 miles
Clouds Clear
Dew Point 51 °F
Humidity 54%
Rainfall 0.00 in
Snow Depth Not available.
5:52 AM 8:45 PM
New Moon, 0% visible
METAR KLXT 241353Z AUTO 36008KT 10SM CLR 21/09 A3021 RMK AO2 SLP223 T02060094
Pressure 30.19 in
Visibility 10.0 miles
Clouds Clear
Dew Point 51 °F
Humidity 54%
Rainfall 0.00 in
Snow Depth Not available.
5:52 AM 8:45 PM
New Moon, 0% visible
METAR KLXT 241353Z AUTO 36008KT 10SM CLR 21/09 A3021 RMK AO2 SLP223 T02060094

Get Severe Weather Alerts

Thanks for signing up!

Be on the lookout for a verification email in your inbox.

You'll start receiving the daily forecast at 6 AM.

×

10-Day Weather Forecast

Almanac

Astronomy

Jun. 24, 2017 Rise Set
Actual Time
Civil Twilight
Nautical Twilight
Astronomical Twilight
Moon
Length of Visible Light
Length of Day
Tomorrow will be .
, % of the Moon is Illuminated

Today's Extremes

State Highs State Lows

Community

WunderPhotos

Category 6

Welcome to Category 6. This is the collective home for Weather Underground's featured writeups by Dr. Jeff Masters (right), Bob Henson (left), Chris Burt, and other regular contributors.

Nearby

Air Quality

  Air Quality AQ Index Pollutant
Not available.

Snow Depth

Station Depth Elevation

Earthquake Activity

City Distance Mag. Time & Date
Minimum magnitude displayed is 2.5.

Coastal Water Temperatures

Place Temperature

Stations

Nearby Weather Stations

Station Location Temp. Windchill Dew Point Humidity Wind Precip. Elev Updated Type
                   

Watches & Warnings

There are currently no watches in effect.